MAPA DE AEROPUERTO

INFORMACIÓN METAR y TAF

METAR FOR LECO
ADDS - METARS form results

(1328 UTC 09 August 2020)
Data provider http://aviationweather.gov/metar/data/
 
METAR text: LECO 091300Z 36007KT 300V060 9999 OVC022 22/17 Q1017 NOSIG
Conditions at: LECO (LA CORUNA/ALVEDR, ES) observed 1300 UTC 09 August 2020
Temperature: 22.0°C (72°F)
Dewpoint: 17.0°C (63°F) [RH = 73%]
Pressure (altimeter): 30.03 inches Hg (1017.0 mb)
Winds: from the N (360 degrees) at 8 MPH (7 knots; 3.6 m/s)
Visibility: 6 or more miles (10+ km)
Ceiling: 2200 feet AGL
Clouds: overcast cloud deck at 2200 feet AGL
Weather: no significant weather observed at this time

METAR text: LECO 091230Z 02003KT 320V070 9999 BKN022 23/17 Q1017 NOSIG
Conditions at: LECO (LA CORUNA/ALVEDR, ES) observed 1230 UTC 09 August 2020
Temperature: 23.0°C (73°F)
Dewpoint: 17.0°C (63°F) [RH = 69%]
Pressure (altimeter): 30.03 inches Hg (1017.0 mb)
Winds: from the NNE (20 degrees) at 3 MPH (3 knots; 1.5 m/s)
Visibility: 6 or more miles (10+ km)
Ceiling: 2200 feet AGL
Clouds: broken clouds at 2200 feet AGL
Weather: no significant weather observed at this time

Forecast for: COR
Text: TAF COR LECO 090901Z 0909/1009 35006KT 9999 SCT020 TX24/0915Z TN15/1005Z
Forecast period: 0900 UTC 09 August 2020 to 0900 UTC 10 August 2020
Forecast type: FROM: standard forecast or significant change
Winds: from the N (350 degrees) at 7 MPH (6 knots; 3.1 m/s)
Visibility: 6 or more miles (10+ km)
Ceiling: at least 12,000 feet AGL
Clouds: scattered clouds at 2000 feet AGL
Weather: no significant weather forecast for this period
Text: TEMPO 0920/1009 BKN010
Forecast period: 2000 UTC 09 August 2020 to 0900 UTC 10 August 2020
Forecast type: TEMPORARY: The following changes expected for less than half the time period
Visibility: missing
Ceiling: 1000 feet AGL
Clouds: broken clouds at 1000 feet AGL
Weather: no significant weather forecast for this period
Text: PROB40
Forecast period: 0000 to 0900 UTC 10 August 2020
Forecast type: TEMPORARY: The following changes expected for less than half the time period
Visibility: 1.86 miles (2.99 km)
Ceiling: 500 feet AGL
Clouds: broken clouds at 500 feet AGL
Weather: -RA BR  (light rain, mist)